• Join FlightAware (Why Join?)
  • Login
  • US Flag 
07:35AM EDT


 

Airport Tracker/Info


-or-


 

Live Flight TrackerFlight Track Log ✈ AVA28 ✈ 15-Jun-2013 ✈ SKBO / BOG - KMCO

Flight Track Log - Related Links

Times and Time Zones

All times are in EDT time to prevent confusion due to time zone crossing. See the AVA28 flight status page for this flight to view local times or setup timezone preferences in your user account.

Time Position Orientation Groundspeed Altitude Reporting Facility
EDT Latitude Longitude Course Direction KTS MPH feet Rate Location/Type
02:04PM 28.4294 -81.3090 345° North  Level Estimated
02:05PM 28.4294 -81.3090 323° Northwest  Level Estimated
02:05PM 23.2539 -78.8714 323° Northwest 457 526 36,000  Level Miami Center
02:06PM 28.4294 -81.3090 323° Northwest  Level Estimated
02:06PM 23.3911 -78.9144 344° North 477 549 36,000  Level Miami Center
02:07PM 28.4294 -81.3090 323° Northwest  Level Estimated
02:07PM 23.5100 -78.9433 347° North 461 531 36,000  Level Miami Center
02:08PM 28.4294 -81.3090 323° Northwest  Level Estimated
02:08PM 23.6306 -78.9772 346° North 442 509 36,000  Level Miami Center
02:09PM 28.4294 -81.3090 323° Northwest  Level Estimated
02:09PM 23.7536 -79.0086 347° North 442 509 36,000  Level Miami Center
02:10PM 28.4294 -81.3090 323° Northwest  Level Estimated
02:10PM 23.8742 -79.0381 347° North 447 514 36,000  Level Miami Center
02:11PM 28.4294 -81.3090 323° Northwest  Level Estimated
02:11PM 23.9886 -79.0742 344° North 442 509 36,000  Level Miami Center
02:12PM 24.1006 -79.1331 334° Northwest 469 540 36,000  Level Miami Center
02:13PM 24.2125 -79.1919 334° Northwest 451 519 36,000  Level Miami Center
02:14PM 24.3267 -79.2489 336° Northwest 451 519 36,000  Level Miami Center
02:15PM 24.4383 -79.3081 334° Northwest 440 506 36,000  Level Miami Center
02:16PM 24.5503 -79.3650 335° Northwest 440 506 36,000  Level Miami Center
02:17PM 24.6600 -79.4197 336° Northwest 440 506 36,000 -60 Level Miami Center
02:18PM 24.7697 -79.4794 334° Northwest 440 506 35,900 -60 Descending Miami Center
02:19PM 24.8817 -79.5367 335° Northwest 440 506 35,900  Level Miami Center
02:20PM 24.9914 -79.5939 335° Northwest 440 506 36,000  Climbing Miami Center
02:21PM 25.1031 -79.6539 334° Northwest 440 506 36,000  Level Miami Center
02:22PM 25.2189 -79.7139 335° Northwest 440 506 36,000  Level Miami Center
02:23PM 25.3306 -79.7717 335° Northwest 440 506 36,000 -60 Level Miami Center
02:24PM 25.4400 -79.8319 334° Northwest 440 506 35,900  Descending Miami Center
02:25PM 25.5539 -79.8875 336° Northwest 440 506 36,000  Climbing Miami Center
02:26PM 25.6633 -79.9481 333° Northwest 440 506 36,000 -240 Level Miami Center
02:27PM 25.7750 -80.0039 336° Northwest 440 506 35,600 -840 Descending Miami Center
02:28PM 25.8844 -80.0622 334° Northwest 440 506 34,400 -1,800 Descending Miami Center
02:29PM 25.9875 -80.1203 333° Northwest 435 501 32,000 -2,220 Descending Miami Center
02:30PM 26.0928 -80.1742 335° Northwest 425 489 30,000 -1,020 Descending Miami Center
02:31PM 26.1942 -80.2256 336° Northwest 424 488 30,000 -180 Level Miami Center
02:32PM 26.3097 -80.2867 335° Northwest 424 488 29,700 -600 Descending Miami Center
02:33PM 26.4025 -80.3311 337° Northwest 419 482 28,900 -960 Descending Miami Center
02:34PM 26.5161 -80.3881 336° Northwest 406 467 27,800 -1,020 Descending Miami Center
02:35PM 26.6067 -80.4347 335° Northwest 396 456 26,900 -960 Descending Miami Center
02:36PM 26.7161 -80.4892 336° Northwest 396 456 25,900 -1,020 Descending Miami Center
02:37PM 26.8131 -80.5411 334° Northwest 391 450 24,900 -1,020 Descending Miami Center
02:38PM 26.9119 -80.5908 336° Northwest 391 450 23,900 -1,020 Descending Miami Center
02:39PM 27.0067 -80.6383 336° Northwest 385 443 22,900 -1,080 Descending Miami Center
02:40PM 27.0994 -80.6856 336° Northwest 373 429 21,800 -1,500 Descending Miami Center
02:41PM 27.1900 -80.7328 335° Northwest 368 423 20,000 -1,740 Descending Miami Center
02:42PM 27.2644 -80.7681 337° Northwest 363 418 18,400 -1,560 Descending Miami Center
02:43PM 27.3733 -80.8233 336° Northwest 357 411 16,900 -1,200 Descending Miami Center
02:44PM 27.4558 -80.8658 335° Northwest 346 398 16,000 -1,020 Descending Miami Center
02:45PM 27.5422 -80.9086 336° Northwest 335 386 14,900 -960 Descending Miami Center
02:46PM 27.6286 -80.9517 336° Northwest 341 392 14,100 -840 Descending Miami Center
02:47PM 27.7150 -80.9969 335° Northwest 341 392 13,300 -840 Descending Miami Center
02:49PM 27.8667 -81.0667 338° Northwest 330 380 11,800 -840 Descending Orlando TRACON
02:50PM 27.9500 -81.1167 332° Northwest 328 377 11,100 -420 Descending Orlando TRACON
02:51PM 28.0333 -81.1500 341° North 293 337 11,000 -720 Descending Orlando TRACON
02:52PM 28.1167 -81.1667 350° North 293 337 9,600 -960 Descending Orlando TRACON
02:53PM 28.2000 -81.2000 341° North 292 336 9,000 -300 Descending Orlando TRACON
02:54PM 28.2667 -81.1833 12° North 297 342 9,000  Level Orlando TRACON
02:55PM 28.3500 -81.1833 360° North 252 290 9,000 -480 Level Orlando TRACON
02:56PM 28.4167 -81.1833 360° North 250 288 8,100 -1,200 Descending Orlando TRACON
02:57PM 28.4833 -81.1833 360° North 244 281 6,700 -1,320 Descending Orlando TRACON
02:58PM 28.5500 -81.1833 360° North 247 284 5,500 -1,140 Descending Orlando TRACON
02:59PM 28.6167 -81.2000 348° North 231 266 4,500 -900 Descending Orlando TRACON
03:00PM 28.6167 -81.2500 270° West 183 211 3,700 -960 Descending Orlando TRACON
03:01PM 28.5833 -81.2833 221° Southwest 182 209 2,500 -960 Descending Orlando TRACON
03:02PM 28.5333 -81.2833 180° South 178 205 1,700 -720 Descending Orlando TRACON
03:03PM 28.4833 -81.2833 180° South 152 175 1,100 -600 Descending Orlando TRACON